地図

経路データ

SID SEASON NUMBER BASIN SUBBASIN NAME ISO_TIME NATURE LAT LON WMO_WIND WMO_PRES WMO_AGENCY TRACK_TYPE DIST2LAND LANDFALL IFLAG USA_AGENCY USA_ATCF_ID USA_LAT USA_LON USA_RECORD USA_STATUS USA_WIND USA_PRES USA_SSHS USA_R34_NE USA_R34_SE USA_R34_SW USA_R34_NW USA_R50_NE USA_R50_SE USA_R50_SW USA_R50_NW USA_R64_NE USA_R64_SE USA_R64_SW USA_R64_NW USA_POCI USA_ROCI USA_RMW USA_EYE TOKYO_LAT TOKYO_LON TOKYO_GRADE TOKYO_WIND TOKYO_PRES TOKYO_R50_DIR TOKYO_R50_LONG TOKYO_R50_SHORT TOKYO_R30_DIR TOKYO_R30_LONG TOKYO_R30_SHORT TOKYO_LAND CMA_LAT CMA_LON CMA_CAT CMA_WIND CMA_PRES HKO_LAT HKO_LON HKO_CAT HKO_WIND HKO_PRES NEWDELHI_LAT NEWDELHI_LON NEWDELHI_GRADE NEWDELHI_WIND NEWDELHI_PRES NEWDELHI_CI NEWDELHI_DP NEWDELHI_POCI REUNION_LAT REUNION_LON REUNION_TYPE REUNION_WIND REUNION_PRES REUNION_TNUM REUNION_CI REUNION_RMW REUNION_R34_NE REUNION_R34_SE REUNION_R34_SW REUNION_R34_NW REUNION_R50_NE REUNION_R50_SE REUNION_R50_SW REUNION_R50_NW REUNION_R64_NE REUNION_R64_SE REUNION_R64_SW REUNION_R64_NW BOM_LAT BOM_LON BOM_TYPE BOM_WIND BOM_PRES BOM_TNUM BOM_CI BOM_RMW BOM_R34_NE BOM_R34_SE BOM_R34_SW BOM_R34_NW BOM_R50_NE BOM_R50_SE BOM_R50_SW BOM_R50_NW BOM_R64_NE BOM_R64_SE BOM_R64_SW BOM_R64_NW BOM_ROCI BOM_POCI BOM_EYE BOM_POS_METHOD BOM_PRES_METHOD NADI_LAT NADI_LON NADI_CAT NADI_WIND NADI_PRES WELLINGTON_LAT WELLINGTON_LON WELLINGTON_WIND WELLINGTON_PRES DS824_LAT DS824_LON DS824_STAGE DS824_WIND DS824_PRES TD9636_LAT TD9636_LON TD9636_STAGE TD9636_WIND TD9636_PRES TD9635_LAT TD9635_LON TD9635_WIND TD9635_PRES TD9635_ROCI NEUMANN_LAT NEUMANN_LON NEUMANN_CLASS NEUMANN_WIND NEUMANN_PRES MLC_LAT MLC_LON MLC_CLASS MLC_WIND MLC_PRES USA_GUST BOM_GUST BOM_GUST_PER REUNION_GUST REUNION_GUST_PER USA_SEAHGT USA_SEARAD_NE USA_SEARAD_SE USA_SEARAD_SW USA_SEARAD_NW STORM_SPEED STORM_DIR
2006234N18109 2006 55 WP MM NOT_NAMED 2006-08-22 00:00:00 NR 17.9000 108.600 main 67 64 O_____________ jtwc_wp WP132006 17.9000 108.600 DB 15 1006 -3 7 114
2006234N18109 2006 55 WP MM NOT_NAMED 2006-08-22 03:00:00 NR 17.7551 108.950 main 67 64 P_____________ WP132006 17.7551 108.950 DB 17 1004 -3 8 115
2006234N18109 2006 55 WP MM NOT_NAMED 2006-08-22 06:00:00 TS 17.5500 109.375 main 67 67 O_O___________ jtwc_wp WP132006 17.6000 109.300 DB 20 1002 -3 1004 120 30 17.4000 109.600 1 23 1004 8 116
2006234N18109 2006 55 WP MM NOT_NAMED 2006-08-22 09:00:00 TS 17.3883 109.737 main 89 89 P_P___________ WP132006 17.4349 109.650 DB 20 1002 -3 1004 120 30 17.2951 109.910 1 23 1004 7 113
2006234N18109 2006 55 WP MM NOT_NAMED 2006-08-22 12:00:00 TS 17.2571 110.086 main 109 109 O_O___________ jtwc_wp WP132006 17.3000 110.000 DB 20 1002 -3 1004 120 30 17.2000 110.200 1 23 1004 7 109
2006234N18109 2006 55 WP MM NOT_NAMED 2006-08-22 15:00:00 TS 17.1737 110.407 main 134 134 P_P___________ WP132006 17.2200 110.357 DB 20 1002 -3 1004 120 30 17.1274 110.458 1 23 1004 6 100
2006234N18109 2006 55 WP MM NOT_NAMED 2006-08-22 18:00:00 TS 17.1500 110.700 main 153 153 O_O___________ jtwc_wp WP132006 17.2000 110.700 DB 20 1002 -3 1005 120 30 17.1000 110.700 1 23 1004 6 92
2006234N18109 2006 55 WP MM NOT_NAMED 2006-08-22 21:00:00 TS 17.1512 110.990 main 171 171 P_P___________ WP132006 17.1974 111.008 DB 20 1002 -3 1004 135 35 17.1050 110.973 1 26 1002 5 79
2006234N18109 2006 55 WP MM NOT_NAMED 2006-08-23 00:00:00 TS 17.2500 111.250 main 183 177 O_O___________ jtwc_wp WP132006 17.3000 111.300 DB 20 1002 -3 1004 150 40 17.2000 111.200 1 29 1000 6 55
2006234N18109 2006 55 WP MM NOT_NAMED 2006-08-23 03:00:00 TS 17.4800 111.476 main 177 161 P_P___________ WP132006 17.5625 111.615 DB 20 1002 -3 1004 150 40 17.3975 111.337 1 29 1000 7 35
2006234N18109 2006 55 WP MM NOT_NAMED 2006-08-23 06:00:00 TS 17.8000 111.650 main 169 148 O_O___________ jtwc_wp WP132006 17.9000 111.900 DB 20 1002 -3 1004 150 40 17.7000 111.400 1 29 1000 7 22
2006234N18109 2006 55 WP MM NOT_NAMED 2006-08-23 09:00:00 TS 18.1500 111.754 main 157 138 P_P___________ WP132006 18.1999 112.115 DB 20 1002 -3 1004 150 40 18.1000 111.393 1 29 1000 7 12
2006234N18109 2006 55 WP MM NOT_NAMED 2006-08-23 12:00:00 TS 18.5000 111.811 main 138 130 O_OO__________ jtwc_wp WP132006 18.5000 112.300 DB 20 1002 -3 1004 150 40 18.5000 111.400 1 29 1000 18.5000 111.500 TD 25 1000 7 14
2006234N18109 2006 55 WP MM NOT_NAMED 2006-08-23 15:00:00 TS 18.7835 111.920 main 130 124 P_PP__________ WP132006 18.8075 112.515 DB 20 1002 -3 1005 140 42 18.7725 111.520 1 29 1000 18.7575 111.532 TD 25 1000 6 22
2006234N18109 2006 55 WP MM NOT_NAMED 2006-08-23 18:00:00 TS 19.0364 112.036 main 124 118 O_OO__________ jtwc_wp WP132006 19.1000 112.700 DB 20 1003 -3 1006 130 45 19.0000 111.700 1 29 1000 19.0000 111.600 TD 25 1000 5 23
2006234N18109 2006 55 WP MM NOT_NAMED 2006-08-23 21:00:00 TS 19.2682 112.139 main 120 120 P_PP__________ WP132006 19.3425 112.823 DB 20 1003 -3 1006 130 45 19.2348 111.855 1 29 1000 19.2274 111.740 TD 25 1000 6 29
2006234N18109 2006 55 WP MM NOT_NAMED 2006-08-24 00:00:00 TS 19.5333 112.333 main 136 136 O_OO__________ jtwc_wp WP132006 19.6000 112.900 DB 20 1003 -3 1006 130 45 19.5000 112.100 1 29 1000 19.5000 112.000 TD 25 1000 8 40
2006234N18109 2006 55 WP MM NOT_NAMED 2006-08-24 03:00:00 TS 19.8828 112.682 main 181 178 P_PP__________ WP132006 19.9350 112.972 DB 20 1003 -3 1005 150 45 19.8280 112.587 1 29 1000 19.8855 112.487 TD 25 1000 9 39
2006234N18109 2006 55 WP MM NOT_NAMED 2006-08-24 06:00:00 TS 20.2667 112.967 main 172 140 O_OO__________ jtwc_wp WP132006 20.3000 113.000 DB 20 1004 -3 1005 170 45 20.2000 113.000 1 29 1000 20.3000 112.900 TD 25 1000 8 21
2006234N18109 2006 55 WP MM NOT_NAMED 2006-08-24 09:00:00 TS 20.6507 112.989 main 129 94 P_PP__________ WP132006 20.6650 112.980 DB 20 1004 -3 1005 170 45 20.6073 113.048 1 29 1001 20.6798 112.940 TD 27 999 7 353
2006234N18109 2006 55 WP MM NOT_NAMED 2006-08-24 12:00:00 TS 21.0000 112.873 main 94 56 O_OO__________ jtwc_wp WP132006 21.0000 112.900 DB 20 1004 -3 1005 170 45 21.0000 112.900 1 29 1002 21.0000 112.800 TD 30 998 7 339
2006234N18109 2006 55 WP MM NOT_NAMED 2006-08-24 15:00:00 TS 21.2805 112.736 main 56 33 P_PP__________ WP132006 21.2650 112.772 DB 25 1003 -3 1005 135 45 21.3224 112.745 1 29 1002 21.2276 112.645 TD 30 998 6 330
2006234N18109 2006 55 WP MM NOT_NAMED 2006-08-24 18:00:00 TS 21.5250 112.550 main 33 0 O_OO__________ jtwc_wp WP132006 21.5000 112.600 TD 30 1002 -1 1005 100 45 21.6000 112.500 1 29 1002 21.4000 112.500 TD 30 998 6 324
2006234N18109 2006 55 WP MM NOT_NAMED 2006-08-24 21:00:00 TS 21.7850 112.339 main 0 0 P_P___________ WP132006 21.7499 112.422 TD 27 1002 -1 1005 100 45 21.8552 112.173 1 29 1002 TD 7 320
2006234N18109 2006 55 WP MM NOT_NAMED 2006-08-25 00:00:00 TS 22.0250 112.100 main 0 0 O_O___________ jtwc_wp WP132006 22.0000 112.200 TD 25 1002 -1 1005 100 45 22.1000 111.800 1 29 1002 6 320
2006234N18109 2006 55 WP MM NOT_NAMED 2006-08-25 03:00:00 TS 22.2502 111.918 main 0 0 P_____________ WP132006 22.2502 111.918 TD 25 1002 -1 1 7 316
2006234N18109 2006 55 WP MM NOT_NAMED 2006-08-25 06:00:00 TS 22.5000 111.600 main 0 O_____________ jtwc_wp WP132006 22.5000 111.600 TD 25 1002 -1 8 310

デジタル台風データ・検索

IBTrACS Databaseについて

本データベースは、米国NOAAが公開する1842年以降の世界の熱帯低気圧のベストトラックデータアーカイブInternational Best Track Archive for Climate Stewardship (IBTrACS)を、ウェブで閲覧しやすい形式に変換したものです。

最終更新日:2021-12-06